Time;durP1;ratioP1;P1;durP2;ratioP2;P2;SDS_P1;SDS_P2;PMS_P1;PMS_P2;Temp;Humidity;BMP_temperature;BMP_pressure;BME280_temperature;BME280_humidity;BME280_pressure;Samples;Min_cycle;Max_cycle;Signal;HPM_P1;HPM_P2
2023/09/07 00:01:22;;;;;;;;;;;25.90;70.20;;;;;;5096059;28;19916;-35
2023/09/07 00:03:48;;;;;;;;;;;25.90;70.30;;;;;;5101202;28;20775;-36
2023/09/07 00:06:14;;;;;;;;;;;25.90;70.50;;;;;;5097541;28;19920;-36
2023/09/07 00:08:39;;;;;;;;;;;25.90;70.60;;;;;;5077454;28;19912;-37
2023/09/07 00:11:05;;;;;;;;;;;25.90;70.80;;;;;;5112877;28;19924;-35
2023/09/07 00:13:32;;;;;;;;;;;25.90;70.90;;;;;;5103374;28;19934;-35
2023/09/07 00:16:01;;;;;;;;;;;26.00;71.00;;;;;;5104390;28;19950;-36
2023/09/07 00:18:27;;;;;;;;;;;25.90;71.10;;;;;;5103211;28;19927;-36
2023/09/07 00:20:53;;;;;;;;;;;26.00;71.30;;;;;;5097174;28;19944;-36
2023/09/07 00:23:22;;;;;;;;;;;26.00;71.30;;;;;;5090470;28;19917;-35
2023/09/07 00:25:48;;;;;;;;;;;26.00;71.40;;;;;;5103433;28;19921;-35
2023/09/07 00:28:13;;;;;;;;;;;26.00;71.50;;;;;;5098914;28;20663;-36
2023/09/07 00:30:40;;;;;;;;;;;26.00;71.50;;;;;;5103126;28;19973;-35
2023/09/07 00:33:06;;;;;;;;;;;26.00;71.60;;;;;;5096168;28;19917;-36
2023/09/07 00:35:32;;;;;;;;;;;26.00;71.80;;;;;;5068944;28;19931;-35
2023/09/07 00:37:58;;;;;;;;;;;26.00;71.80;;;;;;5100148;28;19920;-35
2023/09/07 00:40:25;;;;;;;;;;;26.10;72.00;;;;;;5089702;28;19943;-35
2023/09/07 00:42:51;;;;;;;;;;;26.10;72.00;;;;;;5093481;28;19923;-35
2023/09/07 00:45:17;;;;;;;;;;;26.10;72.20;;;;;;5091769;28;19916;-36
2023/09/07 00:47:42;;;;;;;;;;;26.10;72.30;;;;;;5086608;28;20625;-35
2023/09/07 00:50:09;;;;;;;;;;;26.10;72.30;;;;;;5096817;28;20516;-34
2023/09/07 00:52:34;;;;;;;;;;;26.10;72.50;;;;;;5094361;28;19946;-35
2023/09/07 00:55:04;;;;;;;;;;;26.10;72.60;;;;;;5103610;28;19924;-35
2023/09/07 00:57:30;;;;;;;;;;;26.10;72.60;;;;;;5094058;28;19916;-36
2023/09/07 00:59:56;;;;;;;;;;;26.10;72.60;;;;;;5103687;28;19912;-35
2023/09/07 01:02:22;;;;;;;;;;;26.10;72.70;;;;;;5116578;28;19916;-36
2023/09/07 01:04:48;;;;;;;;;;;26.10;72.60;;;;;;5088833;28;19920;-35
2023/09/07 01:07:17;;;;;;;;;;;26.10;72.70;;;;;;5093755;28;19920;-36
2023/09/07 01:09:43;;;;;;;;;;;26.10;72.70;;;;;;5117836;27;19919;-35
2023/09/07 01:12:14;;;;;;;;;;;26.10;72.70;;;;;;5113633;28;19999;-35
2023/09/07 01:14:39;;;;;;;;;;;26.10;72.70;;;;;;5094844;28;19921;-35
2023/09/07 01:17:05;;;;;;;;;;;26.10;72.70;;;;;;5095955;28;19938;-36
2023/09/07 01:19:31;;;;;;;;;;;26.10;72.70;;;;;;5091251;28;19919;-35
2023/09/07 01:21:57;;;;;;;;;;;26.10;72.80;;;;;;5086252;28;19917;-35
2023/09/07 01:24:24;;;;;;;;;;;26.10;72.80;;;;;;5085813;28;19917;-36
2023/09/07 01:26:50;;;;;;;;;;;26.10;72.80;;;;;;5102641;28;19934;-36
2023/09/07 01:29:19;;;;;;;;;;;26.10;73.00;;;;;;5096279;28;19912;-35
2023/09/07 01:31:45;;;;;;;;;;;26.10;73.00;;;;;;5097500;28;19916;-36
2023/09/07 01:34:13;;;;;;;;;;;26.20;73.20;;;;;;5090979;28;19940;-36
2023/09/07 01:36:39;;;;;;;;;;;26.10;73.20;;;;;;5112646;28;19920;-37
2023/09/07 01:39:08;;;;;;;;;;;26.20;73.40;;;;;;5092482;28;19912;-35
2023/09/07 01:41:34;;;;;;;;;;;26.10;73.30;;;;;;5085837;28;19913;-35
2023/09/07 01:44:00;;;;;;;;;;;26.10;73.40;;;;;;5091525;28;19916;-36
2023/09/07 01:46:28;;;;;;;;;;;26.20;73.40;;;;;;5092805;28;19939;-36
2023/09/07 01:48:54;;;;;;;;;;;26.20;73.30;;;;;;5092184;28;19916;-36
2023/09/07 01:51:20;;;;;;;;;;;26.10;73.30;;;;;;5097053;28;19916;-35
2023/09/07 01:53:48;;;;;;;;;;;26.20;73.30;;;;;;5099650;28;19912;-35
2023/09/07 01:56:17;;;;;;;;;;;26.20;73.30;;;;;;5084235;28;20238;-36
2023/09/07 01:58:43;;;;;;;;;;;26.20;73.40;;;;;;5093327;28;19934;-36
2023/09/07 02:01:20;;;;;;;;;;;26.20;73.40;;;;;;5098550;28;19947;-36
2023/09/07 02:03:46;;;;;;;;;;;26.20;73.40;;;;;;5084878;28;19912;-35
2023/09/07 02:06:11;;;;;;;;;;;26.20;73.40;;;;;;5086710;28;19983;-35
2023/09/07 02:08:38;;;;;;;;;;;26.20;73.50;;;;;;5091502;28;19938;-35
2023/09/07 02:11:05;;;;;;;;;;;26.20;73.50;;;;;;5094404;28;19914;-36
2023/09/07 02:13:31;;;;;;;;;;;26.20;73.40;;;;;;5100879;28;19919;-36
2023/09/07 02:15:57;;;;;;;;;;;26.20;73.40;;;;;;5084827;28;19924;-35
2023/09/07 02:18:22;;;;;;;;;;;26.20;73.40;;;;;;5090866;28;20369;-35
2023/09/07 02:20:48;;;;;;;;;;;26.20;73.50;;;;;;5094545;28;19916;-36
2023/09/07 02:23:14;;;;;;;;;;;26.20;73.60;;;;;;5088570;28;19922;-36
2023/09/07 02:25:40;;;;;;;;;;;26.20;73.60;;;;;;5084412;28;19923;-35
2023/09/07 02:28:06;;;;;;;;;;;26.20;73.60;;;;;;5093256;28;19955;-40
2023/09/07 02:30:32;;;;;;;;;;;26.20;73.60;;;;;;5086693;28;19916;-36
2023/09/07 02:32:58;;;;;;;;;;;26.20;73.70;;;;;;5093959;28;19983;-36
2023/09/07 02:35:24;;;;;;;;;;;26.10;73.60;;;;;;5088403;28;19925;-35
2023/09/07 02:37:52;;;;;;;;;;;26.20;73.70;;;;;;5086801;28;20198;-36
2023/09/07 02:40:18;;;;;;;;;;;26.10;73.70;;;;;;5083987;28;19916;-36
2023/09/07 02:42:44;;;;;;;;;;;26.20;73.80;;;;;;5083948;28;19944;-34
2023/09/07 02:45:10;;;;;;;;;;;26.10;73.60;;;;;;5083880;28;20360;-35
2023/09/07 02:47:36;;;;;;;;;;;26.20;73.70;;;;;;5085453;28;19938;-36
2023/09/07 02:50:02;;;;;;;;;;;26.10;73.60;;;;;;5092922;28;19939;-35
2023/09/07 02:52:28;;;;;;;;;;;26.10;73.60;;;;;;5085490;28;19923;-36
2023/09/07 02:54:54;;;;;;;;;;;26.10;73.50;;;;;;5091209;28;19920;-36
2023/09/07 02:57:20;;;;;;;;;;;26.20;73.60;;;;;;5101906;28;19916;-35
2023/09/07 02:59:46;;;;;;;;;;;26.10;73.60;;;;;;5091723;28;19919;-35
2023/09/07 03:02:12;;;;;;;;;;;26.10;73.50;;;;;;5089441;28;20446;-36
2023/09/07 03:04:38;;;;;;;;;;;26.10;73.50;;;;;;5087268;28;19916;-41
2023/09/07 03:07:04;;;;;;;;;;;26.10;73.60;;;;;;5098734;28;19912;-35
2023/09/07 03:09:29;;;;;;;;;;;26.10;73.70;;;;;;5092914;28;19939;-36
2023/09/07 03:11:55;;;;;;;;;;;26.10;73.80;;;;;;5094410;28;19923;-35
2023/09/07 03:14:21;;;;;;;;;;;26.10;73.80;;;;;;5087053;28;19919;-35
2023/09/07 03:16:50;;;;;;;;;;;26.10;73.70;;;;;;5086651;28;19946;-36
2023/09/07 03:19:16;;;;;;;;;;;26.10;73.70;;;;;;5093768;28;19912;-36
2023/09/07 03:21:42;;;;;;;;;;;26.10;73.60;;;;;;5085226;28;20718;-36
2023/09/07 03:24:08;;;;;;;;;;;26.10;73.40;;;;;;5085545;28;19959;-35
2023/09/07 03:26:34;;;;;;;;;;;26.10;73.50;;;;;;5090922;28;19958;-36
2023/09/07 03:29:00;;;;;;;;;;;26.10;73.50;;;;;;5089942;28;19935;-36
2023/09/07 03:31:26;;;;;;;;;;;26.10;73.50;;;;;;5094757;28;20679;-35
2023/09/07 03:33:52;;;;;;;;;;;26.10;73.40;;;;;;5087712;28;19929;-35
2023/09/07 03:36:18;;;;;;;;;;;26.10;73.40;;;;;;5097838;28;19928;-35
2023/09/07 03:38:44;;;;;;;;;;;26.10;73.40;;;;;;5087134;28;19924;-36
2023/09/07 03:41:10;;;;;;;;;;;26.10;73.50;;;;;;5087282;28;19999;-36
2023/09/07 03:43:36;;;;;;;;;;;26.10;73.60;;;;;;5094483;28;20339;-35
2023/09/07 03:46:01;;;;;;;;;;;26.10;73.70;;;;;;5094448;28;19919;-35
2023/09/07 03:48:27;;;;;;;;;;;26.10;73.70;;;;;;5096693;28;19920;-35
2023/09/07 03:50:53;;;;;;;;;;;26.10;73.70;;;;;;5092740;28;19980;-36
2023/09/07 03:53:19;;;;;;;;;;;26.10;73.70;;;;;;5087887;28;19919;-36
2023/09/07 03:55:45;;;;;;;;;;;26.10;73.80;;;;;;5087870;28;20361;-35
2023/09/07 03:58:11;;;;;;;;;;;26.10;73.70;;;;;;5087731;28;19999;-35
2023/09/07 04:00:43;;;;;;;;;;;26.10;73.70;;;;;;5111400;27;20007;-35
2023/09/07 04:03:09;;;;;;;;;;;26.10;73.60;;;;;;5113023;27;19957;-36
2023/09/07 04:05:38;;;;;;;;;;;26.00;73.40;;;;;;5095858;28;20038;-35
2023/09/07 04:08:04;;;;;;;;;;;26.00;73.20;;;;;;5097801;28;19913;-36
2023/09/07 04:10:30;;;;;;;;;;;26.00;73.20;;;;;;5100947;28;19931;-35
2023/09/07 04:12:56;;;;;;;;;;;26.00;73.10;;;;;;5094134;28;19916;-35
2023/09/07 04:15:22;;;;;;;;;;;26.00;73.00;;;;;;5095253;28;19925;-36
2023/09/07 04:17:50;;;;;;;;;;;26.00;73.10;;;;;;5094444;28;19916;-36
2023/09/07 04:20:15;;;;;;;;;;;26.10;73.20;;;;;;5094253;28;19919;-36
2023/09/07 04:22:41;;;;;;;;;;;26.00;73.40;;;;;;5087342;28;19935;-35
2023/09/07 04:25:07;;;;;;;;;;;26.00;73.50;;;;;;5086299;28;19921;-35
2023/09/07 04:27:34;;;;;;;;;;;26.00;73.60;;;;;;5101864;28;20325;-35
2023/09/07 04:30:00;;;;;;;;;;;26.00;73.80;;;;;;5090565;28;20007;-35
2023/09/07 04:32:26;;;;;;;;;;;26.00;73.90;;;;;;5088274;28;20037;-39
2023/09/07 04:34:55;;;;;;;;;;;26.00;73.80;;;;;;5085429;28;20066;-36
2023/09/07 04:37:22;;;;;;;;;;;26.00;73.90;;;;;;5091683;28;19912;-35
2023/09/07 04:39:52;;;;;;;;;;;26.00;73.80;;;;;;5090603;28;19920;-36
2023/09/07 04:42:17;;;;;;;;;;;26.00;73.60;;;;;;5093588;28;19947;-35
2023/09/07 04:44:43;;;;;;;;;;;25.90;73.40;;;;;;5088227;28;19912;-36
2023/09/07 04:47:09;;;;;;;;;;;26.00;73.20;;;;;;5090819;28;19912;-35
2023/09/07 04:49:35;;;;;;;;;;;25.90;73.10;;;;;;5088537;28;19946;-35
2023/09/07 04:52:01;;;;;;;;;;;25.90;73.00;;;;;;5101018;28;19912;-35
2023/09/07 04:54:27;;;;;;;;;;;25.90;73.10;;;;;;5096022;28;19988;-36
2023/09/07 04:56:53;;;;;;;;;;;25.90;73.00;;;;;;5088466;28;19923;-36
2023/09/07 04:59:19;;;;;;;;;;;25.90;73.00;;;;;;5096113;28;19972;-35
2023/09/07 05:01:45;;;;;;;;;;;25.90;73.00;;;;;;5090193;28;19916;-35
2023/09/07 05:04:11;;;;;;;;;;;25.90;73.10;;;;;;5097068;28;20038;-35
2023/09/07 05:06:40;;;;;;;;;;;25.90;73.40;;;;;;5091091;28;19947;-35
2023/09/07 05:09:06;;;;;;;;;;;25.90;73.70;;;;;;5088700;28;19923;-36
2023/09/07 05:11:34;;;;;;;;;;;25.90;73.80;;;;;;5088687;28;19917;-35
2023/09/07 05:14:01;;;;;;;;;;;25.90;73.90;;;;;;5098949;28;19918;-35
2023/09/07 05:16:27;;;;;;;;;;;25.90;74.00;;;;;;5085638;28;19931;-35
2023/09/07 05:18:53;;;;;;;;;;;25.80;74.60;;;;;;5085150;28;19916;-35
2023/09/07 05:21:19;;;;;;;;;;;25.80;73.90;;;;;;5094036;28;19967;-35
2023/09/07 05:23:46;;;;;;;;;;;25.80;73.80;;;;;;5099637;28;19923;-36
2023/09/07 05:26:12;;;;;;;;;;;25.80;73.60;;;;;;5089785;28;19932;-35
2023/09/07 05:28:39;;;;;;;;;;;25.80;73.50;;;;;;5091875;28;20392;-35
2023/09/07 05:31:05;;;;;;;;;;;25.80;73.30;;;;;;5084765;28;19931;-35
2023/09/07 05:33:31;;;;;;;;;;;25.80;73.30;;;;;;5086952;28;19979;-34
2023/09/07 05:35:57;;;;;;;;;;;25.80;73.40;;;;;;5089809;28;20447;-35
2023/09/07 05:38:22;;;;;;;;;;;25.80;73.30;;;;;;5093252;28;20038;-35
2023/09/07 05:40:50;;;;;;;;;;;25.80;73.30;;;;;;5091706;28;19959;-35
2023/09/07 05:43:16;;;;;;;;;;;25.80;73.30;;;;;;5091528;28;19909;-35
2023/09/07 05:45:42;;;;;;;;;;;25.80;73.30;;;;;;5085360;28;19921;-36
2023/09/07 05:48:07;;;;;;;;;;;25.80;73.50;;;;;;5089875;28;19917;-36
2023/09/07 05:50:34;;;;;;;;;;;25.80;73.80;;;;;;5101232;28;19919;-35
2023/09/07 05:52:59;;;;;;;;;;;25.80;73.80;;;;;;5086322;28;19927;-35
2023/09/07 05:55:25;;;;;;;;;;;25.80;73.80;;;;;;5093536;28;19917;-35
2023/09/07 05:57:53;;;;;;;;;;;25.80;73.90;;;;;;5099224;28;19916;-43
2023/09/07 06:00:19;;;;;;;;;;;25.80;73.90;;;;;;5084648;28;19908;-35
2023/09/07 06:02:45;;;;;;;;;;;25.80;74.10;;;;;;5092075;28;19917;-35
2023/09/07 06:05:11;;;;;;;;;;;25.80;73.90;;;;;;5110703;28;19919;-35
2023/09/07 06:07:37;;;;;;;;;;;25.70;73.80;;;;;;5096880;28;19916;-35
2023/09/07 06:10:05;;;;;;;;;;;25.70;73.60;;;;;;5095064;28;19916;-35
2023/09/07 06:12:31;;;;;;;;;;;25.70;73.40;;;;;;5090689;28;19912;-36
2023/09/07 06:14:57;;;;;;;;;;;25.70;73.50;;;;;;5117386;28;19924;-35
2023/09/07 06:17:23;;;;;;;;;;;25.70;73.40;;;;;;5102253;28;19915;-35
2023/09/07 06:19:49;;;;;;;;;;;25.70;73.50;;;;;;5098357;28;19937;-35
2023/09/07 06:22:15;;;;;;;;;;;25.70;73.40;;;;;;5091228;28;19913;-35
2023/09/07 06:24:41;;;;;;;;;;;25.70;74.10;;;;;;5091469;28;20012;-36
2023/09/07 06:27:06;;;;;;;;;;;25.70;73.40;;;;;;5084665;28;19963;-35
2023/09/07 06:29:32;;;;;;;;;;;25.70;73.50;;;;;;5099312;28;19912;-35
2023/09/07 06:31:58;;;;;;;;;;;25.70;73.60;;;;;;5097196;28;19959;-35
2023/09/07 06:34:24;;;;;;;;;;;25.70;73.70;;;;;;5091013;28;20334;-35
2023/09/07 06:36:50;;;;;;;;;;;25.60;73.70;;;;;;5098097;28;20254;-35
2023/09/07 06:39:16;;;;;;;;;;;25.60;73.90;;;;;;5095631;28;19955;-35
2023/09/07 06:41:42;;;;;;;;;;;25.60;73.90;;;;;;5099933;28;19916;-35
2023/09/07 06:44:07;;;;;;;;;;;25.60;74.00;;;;;;5095026;28;19916;-35
2023/09/07 06:46:33;;;;;;;;;;;25.60;74.10;;;;;;5100520;28;19943;-35
2023/09/07 06:49:00;;;;;;;;;;;25.60;73.90;;;;;;5101465;28;19981;-35
2023/09/07 06:51:25;;;;;;;;;;;25.60;73.60;;;;;;5088106;28;19976;-35
2023/09/07 06:53:51;;;;;;;;;;;25.60;73.70;;;;;;5074160;28;19940;-35
2023/09/07 06:56:17;;;;;;;;;;;25.60;73.80;;;;;;5087831;28;19932;-35
2023/09/07 06:58:43;;;;;;;;;;;25.60;73.70;;;;;;5099743;28;19966;-35
2023/09/07 07:01:09;;;;;;;;;;;25.60;73.60;;;;;;5096843;28;19912;-36
2023/09/07 07:03:35;;;;;;;;;;;25.60;73.70;;;;;;5102218;28;19912;-36
2023/09/07 07:06:01;;;;;;;;;;;25.60;73.80;;;;;;5105001;28;19912;-35
2023/09/07 07:08:27;;;;;;;;;;;25.60;73.70;;;;;;5102772;28;19912;-35
2023/09/07 07:10:53;;;;;;;;;;;25.60;73.70;;;;;;5090660;28;19916;-35
2023/09/07 07:13:19;;;;;;;;;;;25.50;73.60;;;;;;5096743;28;19908;-35
2023/09/07 07:15:45;;;;;;;;;;;25.50;73.70;;;;;;5101171;28;19982;-35
2023/09/07 07:18:11;;;;;;;;;;;25.50;73.90;;;;;;5105356;28;20352;-35
2023/09/07 07:20:41;;;;;;;;;;;25.50;73.90;;;;;;5104528;28;19934;-35
2023/09/07 07:23:07;;;;;;;;;;;25.50;74.00;;;;;;5100230;28;19934;-35
2023/09/07 07:25:36;;;;;;;;;;;25.50;74.10;;;;;;5095286;28;19951;-35
2023/09/07 07:28:05;;;;;;;;;;;25.50;74.00;;;;;;5098411;28;19916;-35
2023/09/07 07:30:32;;;;;;;;;;;25.50;74.00;;;;;;5102897;28;19915;-35
2023/09/07 07:32:57;;;;;;;;;;;25.50;74.10;;;;;;5102685;28;19928;-35
2023/09/07 07:35:23;;;;;;;;;;;25.50;74.00;;;;;;5104764;28;20439;-35
2023/09/07 07:37:49;;;;;;;;;;;25.40;73.80;;;;;;5098430;28;19927;-35
2023/09/07 07:40:15;;;;;;;;;;;25.40;73.80;;;;;;5094982;28;20012;-35
2023/09/07 07:42:42;;;;;;;;;;;25.40;73.80;;;;;;5101594;28;19919;-35
2023/09/07 07:45:08;;;;;;;;;;;25.40;73.70;;;;;;5086767;28;19975;-35
2023/09/07 07:47:34;;;;;;;;;;;25.40;73.80;;;;;;5086687;28;19923;-35
2023/09/07 07:50:00;;;;;;;;;;;25.40;73.80;;;;;;5077601;28;20353;-35
2023/09/07 07:52:26;;;;;;;;;;;25.40;73.80;;;;;;5100177;28;19918;-35
2023/09/07 07:54:53;;;;;;;;;;;25.40;73.90;;;;;;5101341;28;19928;-35
2023/09/07 07:57:18;;;;;;;;;;;25.40;73.90;;;;;;5100412;28;20010;-35
2023/09/07 07:59:44;;;;;;;;;;;25.40;73.90;;;;;;5094283;28;19916;-35
2023/09/07 08:02:10;;;;;;;;;;;25.40;74.00;;;;;;5088943;28;19914;-35
2023/09/07 08:04:36;;;;;;;;;;;25.40;73.90;;;;;;5099636;28;19915;-35
2023/09/07 08:07:06;;;;;;;;;;;25.40;74.00;;;;;;5090070;28;19938;-35
2023/09/07 08:09:32;;;;;;;;;;;25.40;74.20;;;;;;5086357;28;19917;-35
2023/09/07 08:12:00;;;;;;;;;;;25.40;74.00;;;;;;5086620;28;19959;-35
2023/09/07 08:14:27;;;;;;;;;;;25.40;74.10;;;;;;5085606;28;19912;-35
2023/09/07 08:16:53;;;;;;;;;;;25.30;73.90;;;;;;5104458;28;19924;-35
2023/09/07 08:19:19;;;;;;;;;;;25.30;74.00;;;;;;5097870;28;19913;-35
2023/09/07 08:21:46;;;;;;;;;;;25.30;74.00;;;;;;5069788;28;20296;-35
2023/09/07 08:24:12;;;;;;;;;;;25.30;73.90;;;;;;5094723;28;19916;-35
2023/09/07 08:26:37;;;;;;;;;;;25.30;73.90;;;;;;5095022;28;20058;-35
2023/09/07 08:29:08;;;;;;;;;;;25.30;73.90;;;;;;5090876;28;19918;-35
2023/09/07 08:31:38;;;;;;;;;;;25.30;74.00;;;;;;5097582;28;19919;-35
2023/09/07 08:34:09;;;;;;;;;;;25.30;74.00;;;;;;5098948;28;20373;-35
2023/09/07 08:36:35;;;;;;;;;;;25.30;74.00;;;;;;5091253;28;19928;-35
2023/09/07 08:39:05;;;;;;;;;;;25.30;74.00;;;;;;5096506;28;19912;-35
2023/09/07 08:41:47;;;;;;;;;;;25.30;74.00;;;;;;5095531;28;19920;-35
2023/09/07 08:44:16;;;;;;;;;;;25.30;74.00;;;;;;5080737;28;19916;-35
2023/09/07 08:46:42;;;;;;;;;;;25.30;74.10;;;;;;5094373;28;19926;-35
2023/09/07 08:49:08;;;;;;;;;;;25.30;74.20;;;;;;5089230;28;20011;-35
2023/09/07 08:51:37;;;;;;;;;;;25.20;74.20;;;;;;5089920;28;19951;-35
2023/09/07 08:54:03;;;;;;;;;;;25.20;74.00;;;;;;5119808;28;19922;-35
2023/09/07 08:56:29;;;;;;;;;;;25.20;74.10;;;;;;5095706;28;19927;-35
2023/09/07 08:58:55;;;;;;;;;;;25.20;74.10;;;;;;5093063;28;19913;-35
2023/09/07 09:01:21;;;;;;;;;;;25.20;74.20;;;;;;5086454;28;19924;-35
2023/09/07 09:03:47;;;;;;;;;;;25.20;74.20;;;;;;5093210;28;19919;-35
2023/09/07 09:06:13;;;;;;;;;;;25.20;74.20;;;;;;5089115;28;19919;-35
2023/09/07 09:08:46;;;;;;;;;;;25.20;74.20;;;;;;5108703;28;20370;-35
2023/09/07 09:11:12;;;;;;;;;;;25.20;74.00;;;;;;5093570;28;20414;-35
2023/09/07 09:13:39;;;;;;;;;;;25.20;74.20;;;;;;5086949;28;19995;-35
2023/09/07 09:16:05;;;;;;;;;;;25.20;74.20;;;;;;5095838;28;20010;-35
2023/09/07 09:18:31;;;;;;;;;;;25.20;74.10;;;;;;5094083;28;19912;-35
2023/09/07 09:20:58;;;;;;;;;;;25.20;74.10;;;;;;5089403;28;19922;-35
2023/09/07 09:23:30;;;;;;;;;;;25.20;74.20;;;;;;5101397;28;20399;-35
2023/09/07 09:25:56;;;;;;;;;;;25.10;74.20;;;;;;5091774;28;19912;-35
2023/09/07 09:28:22;;;;;;;;;;;25.10;74.20;;;;;;5088017;28;19930;-35
2023/09/07 09:30:48;;;;;;;;;;;25.10;74.30;;;;;;5102485;28;19927;-35
2023/09/07 09:33:14;;;;;;;;;;;25.10;74.20;;;;;;5092852;28;19931;-35
2023/09/07 09:35:42;;;;;;;;;;;25.10;74.40;;;;;;5100571;28;19920;-36
2023/09/07 09:38:08;;;;;;;;;;;25.10;74.30;;;;;;5101348;28;19959;-35
2023/09/07 09:40:38;;;;;;;;;;;25.10;74.40;;;;;;5102387;28;19916;-35
2023/09/07 09:43:04;;;;;;;;;;;25.00;74.30;;;;;;5100421;28;19920;-35
2023/09/07 09:45:30;;;;;;;;;;;25.00;74.30;;;;;;5114654;28;20300;-35
2023/09/07 09:47:56;;;;;;;;;;;25.00;74.20;;;;;;5091413;28;19923;-35
2023/09/07 09:50:22;;;;;;;;;;;25.10;74.20;;;;;;5098926;28;19918;-35
2023/09/07 09:52:48;;;;;;;;;;;25.00;74.20;;;;;;5094909;28;19995;-35
2023/09/07 09:55:14;;;;;;;;;;;25.00;74.30;;;;;;5097014;28;19920;-35
2023/09/07 09:57:39;;;;;;;;;;;25.00;74.20;;;;;;5092873;28;20388;-34
2023/09/07 10:03:17;;;;;;;;;;;25.00;74.20;;;;;;5086398;28;19933;-35
2023/09/07 10:05:46;;;;;;;;;;;25.00;74.30;;;;;;5093087;28;19923;-35
2023/09/07 10:08:13;;;;;;;;;;;25.00;74.40;;;;;;5100710;28;19916;-35
2023/09/07 10:10:39;;;;;;;;;;;25.00;74.30;;;;;;5093213;28;20012;-35
2023/09/07 10:13:05;;;;;;;;;;;25.00;75.20;;;;;;5107075;27;20308;-35
2023/09/07 10:15:31;;;;;;;;;;;25.00;74.50;;;;;;5091665;28;19968;-35
2023/09/07 10:18:06;;;;;;;;;;;25.00;74.40;;;;;;5098408;28;19936;-35
2023/09/07 10:20:47;;;;;;;;;;;24.90;74.40;;;;;;5092222;28;19984;-35
2023/09/07 10:23:13;;;;;;;;;;;24.90;74.50;;;;;;5101144;28;19916;-35
2023/09/07 10:25:39;;;;;;;;;;;24.90;74.40;;;;;;5093885;28;19920;-35
2023/09/07 10:28:05;;;;;;;;;;;24.90;74.50;;;;;;5094577;28;19971;-35
2023/09/07 10:30:32;;;;;;;;;;;24.90;74.40;;;;;;5093786;28;19917;-34
2023/09/07 10:32:58;;;;;;;;;;;24.90;74.40;;;;;;5101351;28;19916;-35
2023/09/07 10:35:25;;;;;;;;;;;24.90;74.40;;;;;;5076477;28;20399;-35
2023/09/07 10:37:51;;;;;;;;;;;24.90;74.40;;;;;;5096777;28;19924;-35
2023/09/07 10:40:21;;;;;;;;;;;24.90;74.50;;;;;;5101916;28;19916;-35
2023/09/07 10:42:47;;;;;;;;;;;24.90;74.60;;;;;;5091167;28;19920;-35
2023/09/07 10:45:15;;;;;;;;;;;24.90;74.60;;;;;;5089906;28;19912;-35
2023/09/07 10:47:45;;;;;;;;;;;24.90;74.60;;;;;;5086599;28;19916;-35
2023/09/07 10:50:12;;;;;;;;;;;24.90;74.70;;;;;;5095460;28;19916;-35
2023/09/07 10:52:39;;;;;;;;;;;24.80;74.60;;;;;;5092395;28;19970;-35
2023/09/07 10:55:05;;;;;;;;;;;24.80;74.60;;;;;;5095956;28;19959;-35
2023/09/07 10:57:31;;;;;;;;;;;24.80;74.70;;;;;;5093297;28;20166;-35
2023/09/07 10:59:57;;;;;;;;;;;24.80;74.70;;;;;;5093437;28;20463;-35
2023/09/07 11:02:23;;;;;;;;;;;24.80;74.70;;;;;;5098018;28;19916;-35
2023/09/07 11:04:49;;;;;;;;;;;24.80;74.70;;;;;;5093830;28;20015;-35
2023/09/07 11:07:15;;;;;;;;;;;24.80;74.60;;;;;;5107198;28;19916;-35
2023/09/07 11:09:41;;;;;;;;;;;24.80;74.60;;;;;;5091987;28;19975;-35
2023/09/07 11:12:08;;;;;;;;;;;24.80;74.60;;;;;;5102124;28;19936;-35
2023/09/07 11:14:34;;;;;;;;;;;24.80;74.50;;;;;;5093293;28;20329;-35
2023/09/07 11:17:03;;;;;;;;;;;24.80;74.50;;;;;;5094753;28;19958;-35
2023/09/07 11:19:31;;;;;;;;;;;24.80;74.60;;;;;;5100296;28;20007;-35
2023/09/07 11:21:57;;;;;;;;;;;24.70;74.50;;;;;;5096787;28;19978;-35
2023/09/07 11:24:24;;;;;;;;;;;24.80;74.50;;;;;;5102398;28;20223;-35
2023/09/07 11:26:50;;;;;;;;;;;24.80;74.50;;;;;;5084286;28;19916;-34
2023/09/07 11:29:16;;;;;;;;;;;24.70;74.40;;;;;;5090838;28;19913;-35
2023/09/07 11:31:42;;;;;;;;;;;24.70;74.50;;;;;;5096991;28;19932;-35
2023/09/07 11:34:12;;;;;;;;;;;24.70;74.50;;;;;;5100625;28;19950;-35
2023/09/07 11:36:39;;;;;;;;;;;24.70;74.50;;;;;;5096707;28;19928;-35
2023/09/07 11:39:14;;;;;;;;;;;24.70;74.50;;;;;;5089800;28;19948;-35
2023/09/07 11:41:40;;;;;;;;;;;24.70;74.60;;;;;;5092127;28;19912;-35
2023/09/07 11:44:07;;;;;;;;;;;24.70;74.50;;;;;;5093886;28;19934;-35
2023/09/07 11:46:33;;;;;;;;;;;24.70;74.60;;;;;;5100365;28;19916;-35
2023/09/07 11:48:59;;;;;;;;;;;24.70;74.60;;;;;;5097525;28;19916;-38
2023/09/07 11:51:25;;;;;;;;;;;24.70;74.60;;;;;;5100846;28;19923;-35
2023/09/07 11:53:51;;;;;;;;;;;24.60;74.60;;;;;;5097345;28;19916;-35
2023/09/07 11:56:17;;;;;;;;;;;24.60;74.50;;;;;;5104864;28;19924;-35
2023/09/07 11:58:43;;;;;;;;;;;24.60;74.60;;;;;;5096284;28;19963;-35
2023/09/07 12:01:09;;;;;;;;;;;24.60;74.60;;;;;;5103774;28;19947;-35
2023/09/07 12:03:35;;;;;;;;;;;24.60;74.60;;;;;;5101583;28;20328;-35
2023/09/07 12:06:02;;;;;;;;;;;24.60;74.60;;;;;;5097273;28;19918;-35
2023/09/07 12:08:28;;;;;;;;;;;24.60;74.60;;;;;;5101548;28;19947;-35
2023/09/07 12:10:54;;;;;;;;;;;24.60;74.60;;;;;;5104068;28;19912;-35
2023/09/07 12:13:20;;;;;;;;;;;24.60;74.60;;;;;;5097287;28;20658;-35
2023/09/07 12:15:46;;;;;;;;;;;24.60;74.70;;;;;;5103154;28;19932;-35
2023/09/07 12:18:12;;;;;;;;;;;24.60;74.70;;;;;;5114938;28;19916;-35
2023/09/07 12:20:38;;;;;;;;;;;24.60;74.80;;;;;;5089120;28;19917;-35
2023/09/07 12:23:04;;;;;;;;;;;24.60;74.80;;;;;;5103873;28;19995;-36
2023/09/07 12:25:32;;;;;;;;;;;24.60;74.80;;;;;;5096416;28;19916;-36
2023/09/07 12:27:58;;;;;;;;;;;24.60;74.80;;;;;;5089708;28;19960;-36
2023/09/07 12:30:24;;;;;;;;;;;24.50;74.90;;;;;;5103788;28;19954;-36
2023/09/07 12:32:50;;;;;;;;;;;24.50;74.90;;;;;;5096825;28;19923;-36
2023/09/07 12:35:16;;;;;;;;;;;24.50;74.80;;;;;;5102238;28;19920;-36
2023/09/07 12:37:42;;;;;;;;;;;24.50;74.80;;;;;;5099451;28;19987;-36
2023/09/07 12:40:11;;;;;;;;;;;24.60;74.80;;;;;;5104046;28;19997;-35
2023/09/07 12:42:38;;;;;;;;;;;24.60;74.90;;;;;;5095549;28;19937;-35
2023/09/07 12:45:04;;;;;;;;;;;24.50;74.80;;;;;;5098367;28;19971;-35
2023/09/07 12:47:30;;;;;;;;;;;24.50;74.90;;;;;;5102577;28;19943;-36
2023/09/07 12:49:56;;;;;;;;;;;24.50;74.90;;;;;;5103315;28;19942;-36
2023/09/07 12:52:22;;;;;;;;;;;24.50;74.90;;;;;;5098308;28;20250;-35
2023/09/07 12:54:48;;;;;;;;;;;24.50;75.00;;;;;;5100891;28;19928;-36
2023/09/07 12:57:14;;;;;;;;;;;24.50;74.90;;;;;;5097946;28;19923;-36
2023/09/07 12:59:40;;;;;;;;;;;24.50;75.00;;;;;;5094389;28;19958;-36
2023/09/07 13:02:06;;;;;;;;;;;24.50;75.10;;;;;;5100568;28;19912;-36
2023/09/07 13:04:32;;;;;;;;;;;24.50;75.10;;;;;;5102459;28;19918;-35
2023/09/07 13:06:58;;;;;;;;;;;24.50;75.10;;;;;;5097826;28;19955;-35
2023/09/07 13:09:23;;;;;;;;;;;24.50;75.10;;;;;;5095629;28;19920;-35
2023/09/07 13:11:49;;;;;;;;;;;24.50;75.20;;;;;;5088971;28;19972;-35
2023/09/07 13:14:15;;;;;;;;;;;24.50;75.30;;;;;;5096453;28;19912;-37
2023/09/07 13:16:41;;;;;;;;;;;24.50;75.20;;;;;;5100977;28;20168;-35
2023/09/07 13:19:07;;;;;;;;;;;24.50;75.20;;;;;;5097153;28;19916;-36
2023/09/07 13:21:33;;;;;;;;;;;24.50;75.30;;;;;;5102150;28;19916;-35
2023/09/07 13:23:59;;;;;;;;;;;24.50;75.40;;;;;;5099634;28;19943;-35
2023/09/07 13:26:25;;;;;;;;;;;24.50;75.40;;;;;;5080984;28;19975;-35
2023/09/07 13:28:50;;;;;;;;;;;24.50;75.40;;;;;;5102354;28;19923;-36
2023/09/07 13:31:17;;;;;;;;;;;24.50;75.40;;;;;;5101197;28;19969;-36
2023/09/07 13:33:42;;;;;;;;;;;24.50;75.40;;;;;;5087309;28;19928;-36
2023/09/07 13:36:10;;;;;;;;;;;24.50;75.30;;;;;;5094299;28;20000;-36
2023/09/07 13:38:36;;;;;;;;;;;24.50;75.20;;;;;;5095023;28;19939;-36
2023/09/07 13:41:02;;;;;;;;;;;24.50;75.10;;;;;;5096378;28;19916;-36
2023/09/07 13:43:28;;;;;;;;;;;24.50;75.20;;;;;;5101572;28;19916;-36
2023/09/07 13:45:54;;;;;;;;;;;24.50;75.20;;;;;;5102711;28;19916;-36
2023/09/07 13:48:20;;;;;;;;;;;24.50;75.30;;;;;;5102339;28;19916;-36
2023/09/07 13:50:46;;;;;;;;;;;24.60;75.50;;;;;;5096199;28;19998;-36
2023/09/07 13:53:12;;;;;;;;;;;24.60;75.40;;;;;;5099445;28;19957;-36
2023/09/07 13:55:39;;;;;;;;;;;24.50;75.40;;;;;;5101482;28;20027;-36
2023/09/07 13:58:06;;;;;;;;;;;24.60;75.60;;;;;;5097620;28;19917;-36
2023/09/07 14:00:32;;;;;;;;;;;24.60;75.50;;;;;;5099295;28;19912;-36
2023/09/07 14:02:57;;;;;;;;;;;24.60;75.50;;;;;;5099896;28;19912;-36
2023/09/07 14:05:23;;;;;;;;;;;24.60;75.60;;;;;;5088399;28;19916;-35
2023/09/07 14:07:49;;;;;;;;;;;24.60;75.70;;;;;;5097858;28;19919;-36
2023/09/07 14:10:15;;;;;;;;;;;24.60;75.80;;;;;;5102138;28;19912;-35
2023/09/07 14:12:44;;;;;;;;;;;24.60;75.90;;;;;;5099939;28;19916;-35
2023/09/07 14:15:10;;;;;;;;;;;24.60;76.00;;;;;;5102010;28;19920;-36